Time;durP1;ratioP1;P1;durP2;ratioP2;P2;SDS_P1;SDS_P2;PMS_P1;PMS_P2;Temp;Humidity;BMP_temperature;BMP_pressure;BME280_temperature;BME280_humidity;BME280_pressure;Samples;Min_cycle;Max_cycle;Signal;HPM_P1;HPM_P2
2021/11/27 00:00:29;;;;;;;1.27;0.63;;;;;;;;;;4990498;28;21182;-81
2021/11/27 00:02:56;;;;;;;1.10;0.52;;;;;;;;;;4987169;28;20455;-81
2021/11/27 00:05:23;;;;;;;0.68;0.40;;;;;;;;;;4987093;28;20058;-81
2021/11/27 00:07:50;;;;;;;1.02;0.60;;;;;;;;;;4988915;28;20038;-80
2021/11/27 00:10:19;;;;;;;0.50;0.40;;;;;;;;;;4986440;28;20066;-80
2021/11/27 00:12:47;;;;;;;1.50;0.50;;;;;;;;;;4977969;28;20576;-82
2021/11/27 00:15:14;;;;;;;0.80;0.40;;;;;;;;;;4972299;28;20065;-82
2021/11/27 00:17:41;;;;;;;1.02;0.50;;;;;;;;;;4990005;28;20506;-82
2021/11/27 00:20:13;;;;;;;0.57;0.35;;;;;;;;;;4986310;28;20054;-81
2021/11/27 00:22:39;;;;;;;0.70;0.50;;;;;;;;;;4989486;28;20132;-82
2021/11/27 00:25:07;;;;;;;1.05;0.60;;;;;;;;;;4988181;28;20112;-81
2021/11/27 00:27:33;;;;;;;0.70;0.40;;;;;;;;;;4993597;28;20062;-82
2021/11/27 00:30:01;;;;;;;0.17;0.17;;;;;;;;;;4984068;28;20121;-81
2021/11/27 00:32:28;;;;;;;0.55;0.40;;;;;;;;;;4985963;28;20119;-81
2021/11/27 00:34:55;;;;;;;1.33;0.60;;;;;;;;;;4988994;28;20568;-81
2021/11/27 00:37:21;;;;;;;0.98;0.50;;;;;;;;;;4987676;28;20054;-82
2021/11/27 00:39:47;;;;;;;0.68;0.30;;;;;;;;;;4987317;28;20057;-80
2021/11/27 00:42:14;;;;;;;0.57;0.40;;;;;;;;;;4985103;28;20075;-81
2021/11/27 00:44:41;;;;;;;0.95;0.50;;;;;;;;;;4990173;28;20077;-80
2021/11/27 00:47:07;;;;;;;0.75;0.30;;;;;;;;;;4986543;28;20053;-80
2021/11/27 00:49:34;;;;;;;0.65;0.40;;;;;;;;;;4988841;28;20062;-81
2021/11/27 00:52:01;;;;;;;1.02;0.52;;;;;;;;;;4987367;28;20443;-80
2021/11/27 00:54:27;;;;;;;0.57;0.45;;;;;;;;;;4985614;28;20062;-80
2021/11/27 00:56:54;;;;;;;0.90;0.40;;;;;;;;;;4989872;28;20060;-81
2021/11/27 00:59:20;;;;;;;1.15;0.50;;;;;;;;;;4997687;28;20070;-80
2021/11/27 01:01:47;;;;;;;0.90;0.45;;;;;;;;;;5007450;28;20748;-82
2021/11/27 01:04:14;;;;;;;0.85;0.40;;;;;;;;;;5004684;28;20065;-80
2021/11/27 01:06:41;;;;;;;1.58;0.50;;;;;;;;;;5000648;28;20494;-81
2021/11/27 01:09:12;;;;;;;2.10;0.55;;;;;;;;;;5006869;28;20493;-81
2021/11/27 01:11:40;;;;;;;0.85;0.63;;;;;;;;;;5007400;28;20061;-81
2021/11/27 01:14:11;;;;;;;0.82;0.47;;;;;;;;;;5008006;28;20523;-80
2021/11/27 01:16:38;;;;;;;1.23;0.57;;;;;;;;;;5005950;28;20053;-80
2021/11/27 01:19:06;;;;;;;0.85;0.50;;;;;;;;;;5007571;28;20054;-81
2021/11/27 01:21:34;;;;;;;0.85;0.40;;;;;;;;;;5007425;28;20066;-81
2021/11/27 01:24:03;;;;;;;1.00;0.40;;;;;;;;;;5002909;28;20054;-80
2021/11/27 01:26:31;;;;;;;1.02;0.40;;;;;;;;;;5005448;28;20030;-81
2021/11/27 01:28:57;;;;;;;0.50;0.30;;;;;;;;;;5007336;28;20088;-80
2021/11/27 01:31:24;;;;;;;0.38;0.30;;;;;;;;;;5010704;28;20057;-80
2021/11/27 01:33:50;;;;;;;0.63;0.30;;;;;;;;;;5015304;28;20065;-81
2021/11/27 01:36:17;;;;;;;0.20;0.20;;;;;;;;;;5007146;28;20080;-81
2021/11/27 01:38:43;;;;;;;0.80;0.40;;;;;;;;;;5007301;28;20038;-81
2021/11/27 01:41:10;;;;;;;0.95;0.40;;;;;;;;;;5003644;28;20034;-79
2021/11/27 01:43:38;;;;;;;0.77;0.40;;;;;;;;;;4987328;28;20506;-80
2021/11/27 01:46:05;;;;;;;1.17;0.32;;;;;;;;;;5008895;28;20081;-81
2021/11/27 01:48:31;;;;;;;0.75;0.60;;;;;;;;;;5005881;28;20049;-81
2021/11/27 01:51:00;;;;;;;0.77;0.50;;;;;;;;;;5006988;28;20061;-81
2021/11/27 01:53:28;;;;;;;0.93;0.47;;;;;;;;;;5007649;28;20074;-81
2021/11/27 01:55:57;;;;;;;0.77;0.40;;;;;;;;;;5005972;28;20073;-81
2021/11/27 01:58:23;;;;;;;0.75;0.30;;;;;;;;;;5003471;28;20069;-81
2021/11/27 02:00:51;;;;;;;0.73;0.50;;;;;;;;;;5009630;28;20514;-81
2021/11/27 02:03:18;;;;;;;0.32;0.30;;;;;;;;;;5005668;28;20061;-81
2021/11/27 02:05:44;;;;;;;0.55;0.28;;;;;;;;;;5010988;28;20686;-81
2021/11/27 02:08:11;;;;;;;0.55;0.30;;;;;;;;;;5009792;28;20084;-81
2021/11/27 02:10:37;;;;;;;1.33;0.38;;;;;;;;;;5010641;28;20070;-81
2021/11/27 02:13:04;;;;;;;0.70;0.40;;;;;;;;;;5009269;28;20538;-81
2021/11/27 02:15:30;;;;;;;0.60;0.55;;;;;;;;;;5004824;28;20057;-81
2021/11/27 02:17:57;;;;;;;0.90;0.60;;;;;;;;;;5017630;28;20086;-81
2021/11/27 02:20:24;;;;;;;0.60;0.50;;;;;;;;;;5009140;28;20065;-81
2021/11/27 02:22:50;;;;;;;0.50;0.30;;;;;;;;;;5015443;28;20469;-81
2021/11/27 02:25:19;;;;;;;0.77;0.40;;;;;;;;;;4998744;28;20121;-81
2021/11/27 02:27:47;;;;;;;0.10;0.10;;;;;;;;;;5000444;28;20070;-81
2021/11/27 02:30:14;;;;;;;0.28;0.22;;;;;;;;;;4990461;28;20065;-80
2021/11/27 02:32:41;;;;;;;0.80;0.52;;;;;;;;;;5012269;28;20053;-81
2021/11/27 02:35:08;;;;;;;0.45;0.30;;;;;;;;;;5008741;28;20124;-81
2021/11/27 02:37:35;;;;;;;0.40;0.32;;;;;;;;;;5001729;28;20509;-80
2021/11/27 02:40:01;;;;;;;0.47;0.32;;;;;;;;;;5010890;28;20061;-81
2021/11/27 02:42:28;;;;;;;0.20;0.20;;;;;;;;;;5008216;28;20443;-81
2021/11/27 02:44:54;;;;;;;0.45;0.28;;;;;;;;;;4976251;28;20026;-82
2021/11/27 02:47:21;;;;;;;1.10;0.30;;;;;;;;;;4997543;28;20065;-82
2021/11/27 02:49:47;;;;;;;0.43;0.22;;;;;;;;;;5001269;28;20953;-82
2021/11/27 02:52:13;;;;;;;0.20;0.20;;;;;;;;;;4997808;28;20246;-80
2021/11/27 02:54:40;;;;;;;0.30;0.30;;;;;;;;;;5006650;28;20058;-80
2021/11/27 02:57:06;;;;;;;0.25;0.20;;;;;;;;;;4990670;28;20064;-80
2021/11/27 02:59:33;;;;;;;0.77;0.30;;;;;;;;;;5009390;28;20073;-81
2021/11/27 03:02:01;;;;;;;0.52;0.22;;;;;;;;;;4981718;28;20514;-81
2021/11/27 03:04:28;;;;;;;0.15;0.13;;;;;;;;;;4992585;28;20069;-81
2021/11/27 03:06:55;;;;;;;0.15;0.15;;;;;;;;;;4989825;28;20054;-80
2021/11/27 03:09:21;;;;;;;0.30;0.20;;;;;;;;;;4989466;28;20054;-81
2021/11/27 03:11:49;;;;;;;0.40;0.30;;;;;;;;;;4994027;28;20050;-80
2021/11/27 03:14:16;;;;;;;0.10;0.10;;;;;;;;;;4992567;28;20066;-80
2021/11/27 03:16:43;;;;;;;0.38;0.20;;;;;;;;;;4996397;28;20074;-82
2021/11/27 03:19:10;;;;;;;0.50;0.20;;;;;;;;;;4990081;28;20062;-81
2021/11/27 03:21:36;;;;;;;0.30;0.30;;;;;;;;;;4993295;28;20058;-81
2021/11/27 03:24:03;;;;;;;0.20;0.20;;;;;;;;;;4992553;28;20179;-81
2021/11/27 03:26:30;;;;;;;0.65;0.30;;;;;;;;;;4988221;28;20046;-82
2021/11/27 03:28:56;;;;;;;0.75;0.30;;;;;;;;;;4988706;28;20438;-81
2021/11/27 03:31:23;;;;;;;0.32;0.20;;;;;;;;;;4988969;28;20054;-81
2021/11/27 03:33:49;;;;;;;0.35;0.20;;;;;;;;;;4992468;28;20042;-81
2021/11/27 03:36:16;;;;;;;0.68;0.20;;;;;;;;;;4983732;28;20047;-81
2021/11/27 03:38:42;;;;;;;0.40;0.20;;;;;;;;;;4988865;28;20057;-81
2021/11/27 03:41:10;;;;;;;0.70;0.45;;;;;;;;;;4989747;28;20061;-81
2021/11/27 03:43:37;;;;;;;0.15;0.10;;;;;;;;;;4991668;28;20069;-81
2021/11/27 03:46:03;;;;;;;0.30;0.30;;;;;;;;;;4989720;28;20057;-81
2021/11/27 03:48:35;;;;;;;0.40;0.30;;;;;;;;;;4988105;28;20038;-81
2021/11/27 03:51:03;;;;;;;0.20;0.20;;;;;;;;;;4989623;28;20046;-81
2021/11/27 03:53:30;;;;;;;0.13;0.13;;;;;;;;;;4987980;28;20096;-81
2021/11/27 03:55:57;;;;;;;0.40;0.22;;;;;;;;;;4990521;28;20063;-81
2021/11/27 03:58:24;;;;;;;0.30;0.10;;;;;;;;;;4992816;28;20060;-81
2021/11/27 04:00:51;;;;;;;0.38;0.15;;;;;;;;;;5017010;28;20061;-82
2021/11/27 04:03:19;;;;;;;0.20;0.20;;;;;;;;;;5007147;28;20061;-81
2021/11/27 04:05:56;;;;;;;0.30;0.10;;;;;;;;;;5001198;28;20490;-81
2021/11/27 04:08:22;;;;;;;0.30;0.20;;;;;;;;;;5006838;28;20103;-81
2021/11/27 04:10:49;;;;;;;0.20;0.10;;;;;;;;;;5007956;28;20057;-81
2021/11/27 04:13:16;;;;;;;0.30;0.20;;;;;;;;;;5006462;28;20084;-81
2021/11/27 04:15:44;;;;;;;0.10;0.10;;;;;;;;;;4992421;28;20124;-81
2021/11/27 04:18:10;;;;;;;0.30;0.15;;;;;;;;;;4996873;28;20076;-82
2021/11/27 04:20:37;;;;;;;0.40;0.20;;;;;;;;;;5000148;28;20062;-82
2021/11/27 04:23:04;;;;;;;0.13;0.10;;;;;;;;;;5009795;28;20064;-80
2021/11/27 04:25:30;;;;;;;0.10;0.10;;;;;;;;;;5006908;28;20101;-81
2021/11/27 04:27:57;;;;;;;0.17;0.17;;;;;;;;;;5008363;28;20064;-81
2021/11/27 04:30:25;;;;;;;0.30;0.20;;;;;;;;;;5005455;28;20056;-81
2021/11/27 04:32:52;;;;;;;0.40;0.20;;;;;;;;;;5010516;28;20393;-81
2021/11/27 04:35:19;;;;;;;0.32;0.20;;;;;;;;;;5007600;28;20667;-81
2021/11/27 04:37:46;;;;;;;0.03;0.03;;;;;;;;;;5006286;28;20065;-80
2021/11/27 04:40:13;;;;;;;0.30;0.20;;;;;;;;;;5010437;28;20067;-80
2021/11/27 04:42:39;;;;;;;0.38;0.20;;;;;;;;;;5003286;28;20061;-80
2021/11/27 04:45:07;;;;;;;0.10;0.10;;;;;;;;;;5006426;28;20064;-80
2021/11/27 04:47:34;;;;;;;0.10;0.10;;;;;;;;;;5007946;28;21268;-81
2021/11/27 04:50:00;;;;;;;0.28;0.10;;;;;;;;;;5004985;28;20442;-80
2021/11/27 04:52:27;;;;;;;0.30;0.20;;;;;;;;;;5004202;28;20062;-81
2021/11/27 04:54:53;;;;;;;0.08;0.08;;;;;;;;;;5008470;28;20052;-80
2021/11/27 04:57:20;;;;;;;0.20;0.20;;;;;;;;;;5006088;28;20053;-81
2021/11/27 04:59:47;;;;;;;0.30;0.25;;;;;;;;;;5003098;28;20073;-81
2021/11/27 05:02:13;;;;;;;0.08;0.08;;;;;;;;;;5007825;28;20054;-81
2021/11/27 05:04:40;;;;;;;0.00;0.00;;;;;;;;;;5008527;28;20100;-81
2021/11/27 05:07:06;;;;;;;0.10;0.10;;;;;;;;;;5011381;28;20072;-79
2021/11/27 05:09:33;;;;;;;0.28;0.13;;;;;;;;;;5006181;28;20073;-81
2021/11/27 05:11:59;;;;;;;0.10;0.10;;;;;;;;;;5005644;28;20026;-81
2021/11/27 05:14:26;;;;;;;0.10;0.10;;;;;;;;;;4998354;28;20157;-81
2021/11/27 05:16:52;;;;;;;0.35;0.20;;;;;;;;;;5007886;28;20054;-81
2021/11/27 05:19:19;;;;;;;0.05;0.05;;;;;;;;;;5004577;28;20092;-81
2021/11/27 05:21:45;;;;;;;0.20;0.20;;;;;;;;;;5001534;28;20169;-81
2021/11/27 05:24:12;;;;;;;0.17;0.17;;;;;;;;;;4998396;28;20069;-81
2021/11/27 05:26:38;;;;;;;0.30;0.10;;;;;;;;;;5012678;28;20120;-80
2021/11/27 05:29:05;;;;;;;0.10;0.10;;;;;;;;;;5012518;28;20065;-80
2021/11/27 05:31:31;;;;;;;0.20;0.10;;;;;;;;;;5005803;28;20042;-81
2021/11/27 05:34:19;;;;;;;0.22;0.17;;;;;;;;;;5008451;28;20057;-81
2021/11/27 05:36:45;;;;;;;0.10;0.10;;;;;;;;;;5008626;28;20516;-81
2021/11/27 05:39:12;;;;;;;0.05;0.05;;;;;;;;;;5012227;28;20049;-80
2021/11/27 05:41:38;;;;;;;0.10;0.10;;;;;;;;;;5022620;28;20049;-81
2021/11/27 05:44:05;;;;;;;0.30;0.10;;;;;;;;;;5011144;28;20567;-81
2021/11/27 05:46:31;;;;;;;0.40;0.10;;;;;;;;;;5010283;28;20066;-80
2021/11/27 05:48:57;;;;;;;0.60;0.10;;;;;;;;;;5013537;28;20088;-81
2021/11/27 05:51:24;;;;;;;0.10;0.10;;;;;;;;;;5009909;28;20051;-81
2021/11/27 05:53:50;;;;;;;0.00;0.00;;;;;;;;;;5008837;28;20057;-80
2021/11/27 05:56:17;;;;;;;0.22;0.15;;;;;;;;;;5009743;28;20042;-80
2021/11/27 05:58:43;;;;;;;0.10;0.10;;;;;;;;;;5012130;28;20096;-80
2021/11/27 06:01:10;;;;;;;0.10;0.10;;;;;;;;;;5009947;28;20038;-80
2021/11/27 06:03:37;;;;;;;0.10;0.10;;;;;;;;;;4993333;28;20555;-81
2021/11/27 06:06:04;;;;;;;0.10;0.10;;;;;;;;;;5014690;28;20688;-81
2021/11/27 06:08:30;;;;;;;0.08;0.08;;;;;;;;;;5012265;28;20054;-81
2021/11/27 06:10:57;;;;;;;0.45;0.10;;;;;;;;;;5010343;28;20041;-81
2021/11/27 06:13:23;;;;;;;0.10;0.10;;;;;;;;;;5007977;28;20064;-80
2021/11/27 06:15:50;;;;;;;0.20;0.00;;;;;;;;;;4992083;28;20546;-81
2021/11/27 06:18:16;;;;;;;0.30;0.20;;;;;;;;;;5009599;28;20073;-82
2021/11/27 06:20:42;;;;;;;0.13;0.08;;;;;;;;;;5013707;28;20045;-82
2021/11/27 06:23:09;;;;;;;0.10;0.10;;;;;;;;;;5010272;28;20064;-81
2021/11/27 06:25:35;;;;;;;0.10;0.03;;;;;;;;;;5002265;28;20045;-81
2021/11/27 06:28:02;;;;;;;0.00;0.00;;;;;;;;;;5010712;28;20057;-82
2021/11/27 06:30:28;;;;;;;0.00;0.00;;;;;;;;;;4991185;28;20492;-81
2021/11/27 06:32:55;;;;;;;0.10;0.10;;;;;;;;;;5009415;28;20115;-81
2021/11/27 06:35:21;;;;;;;0.00;0.00;;;;;;;;;;5009196;28;20122;-81
2021/11/27 06:37:48;;;;;;;0.13;0.10;;;;;;;;;;5012493;28;20049;-81
2021/11/27 06:40:14;;;;;;;0.28;0.10;;;;;;;;;;5008015;28;20069;-81
2021/11/27 06:42:41;;;;;;;0.30;0.10;;;;;;;;;;4990394;28;20088;-81
2021/11/27 06:45:08;;;;;;;0.00;0.00;;;;;;;;;;5008749;28;20061;-81
2021/11/27 06:47:34;;;;;;;0.00;0.00;;;;;;;;;;5011577;28;20474;-81
2021/11/27 06:50:01;;;;;;;0.00;0.00;;;;;;;;;;5006953;28;20061;-81
2021/11/27 06:52:27;;;;;;;0.10;0.10;;;;;;;;;;5006540;28;20030;-81
2021/11/27 06:54:54;;;;;;;0.10;0.08;;;;;;;;;;5008546;28;20061;-81
2021/11/27 06:57:20;;;;;;;0.10;0.10;;;;;;;;;;5000662;28;20107;-80
2021/11/27 06:59:46;;;;;;;0.10;0.10;;;;;;;;;;5010272;28;20073;-81
2021/11/27 07:02:13;;;;;;;0.15;0.10;;;;;;;;;;5008470;28;20767;-82
2021/11/27 07:04:39;;;;;;;0.30;0.20;;;;;;;;;;5004340;28;20049;-81
2021/11/27 07:07:06;;;;;;;0.40;0.10;;;;;;;;;;5012995;28;20034;-82
2021/11/27 07:09:34;;;;;;;0.10;0.10;;;;;;;;;;4998020;28;20069;-82
2021/11/27 07:12:00;;;;;;;0.22;0.10;;;;;;;;;;5005503;28;20104;-81
2021/11/27 07:14:26;;;;;;;0.00;0.00;;;;;;;;;;5008301;28;20116;-82
2021/11/27 07:16:53;;;;;;;0.20;0.05;;;;;;;;;;5011316;28;20054;-81
2021/11/27 07:19:19;;;;;;;0.10;0.00;;;;;;;;;;5007717;28;20069;-82
2021/11/27 07:21:46;;;;;;;0.08;0.08;;;;;;;;;;5009820;28;20069;-81
2021/11/27 07:24:12;;;;;;;0.15;0.13;;;;;;;;;;5007690;28;20575;-82
2021/11/27 07:26:38;;;;;;;0.05;0.00;;;;;;;;;;5009861;28;20114;-81
2021/11/27 07:29:05;;;;;;;0.05;0.00;;;;;;;;;;5010191;28;20041;-81
2021/11/27 07:31:31;;;;;;;0.00;0.00;;;;;;;;;;5007383;28;20068;-81
2021/11/27 07:33:59;;;;;;;0.28;0.10;;;;;;;;;;5006767;28;20049;-81
2021/11/27 07:36:25;;;;;;;0.32;0.10;;;;;;;;;;5007891;28;20655;-81
2021/11/27 07:38:51;;;;;;;0.10;0.10;;;;;;;;;;5007523;28;20061;-82
2021/11/27 07:41:18;;;;;;;0.28;0.10;;;;;;;;;;5003666;28;20057;-81
2021/11/27 07:43:44;;;;;;;0.17;0.08;;;;;;;;;;5010255;28;20069;-81
2021/11/27 07:46:12;;;;;;;0.57;0.10;;;;;;;;;;5014156;28;20069;-81
2021/11/27 07:48:39;;;;;;;0.10;0.10;;;;;;;;;;5006975;28;20057;-81
2021/11/27 07:51:06;;;;;;;0.10;0.10;;;;;;;;;;5008576;28;20088;-81
2021/11/27 07:53:32;;;;;;;0.30;0.10;;;;;;;;;;5004148;28;20135;-82
2021/11/27 07:55:59;;;;;;;0.40;0.20;;;;;;;;;;5007614;28;20062;-81
2021/11/27 07:58:25;;;;;;;0.10;0.10;;;;;;;;;;4991278;28;20066;-81
2021/11/27 08:00:52;;;;;;;0.10;0.10;;;;;;;;;;5007997;28;20076;-81
2021/11/27 08:03:18;;;;;;;0.85;0.15;;;;;;;;;;5006653;28;20074;-81
2021/11/27 08:05:44;;;;;;;0.20;0.08;;;;;;;;;;5005988;28;20072;-81
2021/11/27 08:08:11;;;;;;;0.25;0.10;;;;;;;;;;4996297;28;20489;-81
2021/11/27 08:10:37;;;;;;;0.20;0.10;;;;;;;;;;5008179;28;20499;-82
2021/11/27 08:13:04;;;;;;;0.05;0.00;;;;;;;;;;5009454;28;20034;-81
2021/11/27 08:15:30;;;;;;;0.00;0.00;;;;;;;;;;5006847;28;20108;-81
2021/11/27 08:17:56;;;;;;;0.10;0.10;;;;;;;;;;5013133;28;20551;-81
2021/11/27 08:20:23;;;;;;;0.28;0.13;;;;;;;;;;5006514;28;20057;-81
2021/11/27 08:22:50;;;;;;;0.00;0.00;;;;;;;;;;5008449;28;20062;-81
2021/11/27 08:25:16;;;;;;;0.25;0.03;;;;;;;;;;5007123;28;20070;-81
2021/11/27 08:27:42;;;;;;;0.00;0.00;;;;;;;;;;4994599;28;20072;-80
2021/11/27 08:30:10;;;;;;;0.17;0.08;;;;;;;;;;4995984;28;20055;-80
2021/11/27 08:32:37;;;;;;;0.60;0.55;;;;;;;;;;5008707;28;20072;-81
2021/11/27 08:35:07;;;;;;;0.08;0.00;;;;;;;;;;5007182;28;20072;-81
2021/11/27 08:37:33;;;;;;;0.15;0.10;;;;;;;;;;5007747;28;20544;-81
2021/11/27 08:40:00;;;;;;;0.00;0.00;;;;;;;;;;5008801;28;20176;-81
2021/11/27 08:42:27;;;;;;;0.15;0.10;;;;;;;;;;5001755;28;20076;-81
2021/11/27 08:44:53;;;;;;;0.00;0.00;;;;;;;;;;5008224;28;20077;-81
2021/11/27 08:47:20;;;;;;;0.25;0.00;;;;;;;;;;5010344;28;20053;-81
2021/11/27 08:49:47;;;;;;;0.20;0.10;;;;;;;;;;5013434;28;20053;-81
2021/11/27 08:52:14;;;;;;;0.13;0.00;;;;;;;;;;5006418;28;20064;-81
2021/11/27 08:54:40;;;;;;;0.20;0.00;;;;;;;;;;5008484;28;20072;-81
2021/11/27 08:57:07;;;;;;;0.13;0.10;;;;;;;;;;5007697;28;20042;-81
2021/11/27 08:59:33;;;;;;;0.20;0.20;;;;;;;;;;4995206;28;21530;-81
2021/11/27 09:02:00;;;;;;;0.00;0.00;;;;;;;;;;4987859;28;20065;-81
2021/11/27 09:04:26;;;;;;;0.17;0.17;;;;;;;;;;4990517;28;20066;-81
2021/11/27 09:06:53;;;;;;;0.43;0.20;;;;;;;;;;4988953;28;20046;-80
2021/11/27 09:09:20;;;;;;;0.40;0.20;;;;;;;;;;4987402;28;20065;-79
2021/11/27 09:11:49;;;;;;;0.20;0.20;;;;;;;;;;4988222;28;20467;-80
2021/11/27 09:14:16;;;;;;;0.20;0.10;;;;;;;;;;4986096;28;20065;-80
2021/11/27 09:16:42;;;;;;;0.20;0.00;;;;;;;;;;4990756;28;20061;-80
2021/11/27 09:19:09;;;;;;;0.20;0.10;;;;;;;;;;4978103;28;20073;-79
2021/11/27 09:21:35;;;;;;;0.10;0.10;;;;;;;;;;4979258;28;20058;-79
2021/11/27 09:24:03;;;;;;;0.10;0.10;;;;;;;;;;4989604;28;20142;-80
2021/11/27 09:26:29;;;;;;;0.13;0.10;;;;;;;;;;4989299;28;20058;-80
2021/11/27 09:28:56;;;;;;;0.10;0.05;;;;;;;;;;4984690;28;20069;-81
2021/11/27 09:31:22;;;;;;;0.43;0.10;;;;;;;;;;4987113;28;20077;-80
2021/11/27 09:33:49;;;;;;;0.10;0.10;;;;;;;;;;4958824;28;20045;-80
2021/11/27 09:36:18;;;;;;;0.10;0.10;;;;;;;;;;4984919;28;20062;-80
2021/11/27 09:38:44;;;;;;;0.00;0.00;;;;;;;;;;4970336;28;20047;-80
2021/11/27 09:41:11;;;;;;;0.38;0.10;;;;;;;;;;4986707;28;20596;-80
2021/11/27 09:43:38;;;;;;;0.00;0.00;;;;;;;;;;4986486;28;20116;-80
2021/11/27 09:46:06;;;;;;;0.20;0.15;;;;;;;;;;4985432;28;20455;-80
2021/11/27 09:48:33;;;;;;;0.10;0.10;;;;;;;;;;4991144;28;20090;-79
2021/11/27 09:50:59;;;;;;;0.10;0.10;;;;;;;;;;4986252;28;20063;-80
2021/11/27 09:53:26;;;;;;;0.10;0.10;;;;;;;;;;4987054;28;20580;-79
2021/11/27 09:55:53;;;;;;;0.50;0.20;;;;;;;;;;4983981;28;20204;-78
2021/11/27 09:58:21;;;;;;;0.10;0.10;;;;;;;;;;4987311;28;20066;-80
2021/11/27 10:00:48;;;;;;;0.22;0.10;;;;;;;;;;4995044;28;20131;-80
2021/11/27 10:03:16;;;;;;;0.10;0.10;;;;;;;;;;5004590;28;20189;-79
2021/11/27 10:05:44;;;;;;;0.10;0.10;;;;;;;;;;4991195;28;20042;-82
2021/11/27 10:08:11;;;;;;;0.20;0.20;;;;;;;;;;5009316;28;20127;-79
2021/11/27 10:10:37;;;;;;;0.30;0.20;;;;;;;;;;5001999;28;20061;-79
2021/11/27 10:13:04;;;;;;;0.10;0.00;;;;;;;;;;5003059;28;20086;-79
2021/11/27 10:15:30;;;;;;;0.43;0.10;;;;;;;;;;5005625;28;20612;-79
2021/11/27 10:17:57;;;;;;;0.10;0.10;;;;;;;;;;5005713;28;20569;-79
2021/11/27 10:20:24;;;;;;;0.10;0.10;;;;;;;;;;5006226;28;20050;-80
2021/11/27 10:22:52;;;;;;;0.38;0.20;;;;;;;;;;5008529;28;20124;-80
2021/11/27 10:25:24;;;;;;;0.20;0.20;;;;;;;;;;5005734;28;20057;-81
2021/11/27 10:27:51;;;;;;;0.10;0.10;;;;;;;;;;4996397;28;20561;-80
2021/11/27 10:30:18;;;;;;;0.17;0.10;;;;;;;;;;4999658;28;20126;-79
2021/11/27 10:32:46;;;;;;;0.57;0.20;;;;;;;;;;4992873;28;20034;-80
2021/11/27 10:35:18;;;;;;;0.82;0.20;;;;;;;;;;4990835;28;20080;-80
2021/11/27 10:37:49;;;;;;;1.45;0.20;;;;;;;;;;5002626;28;20107;-79
2021/11/27 10:40:17;;;;;;;0.10;0.10;;;;;;;;;;5006687;28;20058;-79
2021/11/27 10:42:46;;;;;;;0.25;0.20;;;;;;;;;;5009754;28;20068;-81
2021/11/27 10:45:15;;;;;;;0.13;0.13;;;;;;;;;;5008065;28;20061;-79
2021/11/27 10:47:44;;;;;;;0.38;0.20;;;;;;;;;;5005967;28;20065;-80
2021/11/27 10:50:11;;;;;;;0.10;0.10;;;;;;;;;;5007885;28;20127;-79
2021/11/27 10:52:38;;;;;;;0.20;0.10;;;;;;;;;;5009215;28;20054;-79
2021/11/27 10:55:21;;;;;;;0.10;0.10;;;;;;;;;;5008234;28;20065;-80
2021/11/27 10:57:48;;;;;;;0.10;0.10;;;;;;;;;;5007956;28;20053;-79
2021/11/27 11:00:27;;;;;;;0.68;0.20;;;;;;;;;;5014237;28;20073;-81
2021/11/27 11:02:54;;;;;;;0.32;0.20;;;;;;;;;;5008817;28;20061;-79
2021/11/27 11:05:21;;;;;;;0.17;0.10;;;;;;;;;;5006932;28;20096;-79
2021/11/27 11:07:57;;;;;;;0.10;0.10;;;;;;;;;;5018647;28;20119;-80
2021/11/27 11:10:25;;;;;;;0.35;0.20;;;;;;;;;;5009130;28;20131;-80
2021/11/27 11:12:55;;;;;;;0.10;0.10;;;;;;;;;;5009546;28;20033;-80
2021/11/27 11:15:27;;;;;;;0.20;0.17;;;;;;;;;;5008850;28;20615;-80
2021/11/27 11:18:05;;;;;;;0.63;0.20;;;;;;;;;;5011882;28;20068;-81
2021/11/27 11:20:32;;;;;;;0.10;0.10;;;;;;;;;;5013491;28;20065;-80
2021/11/27 11:23:04;;;;;;;0.00;0.00;;;;;;;;;;5007325;28;20567;-79
2021/11/27 11:25:31;;;;;;;0.03;0.03;;;;;;;;;;5006337;28;20058;-79
2021/11/27 11:28:01;;;;;;;0.32;0.13;;;;;;;;;;5004266;28;20604;-80
2021/11/27 11:30:35;;;;;;;0.35;0.10;;;;;;;;;;5007651;28;20065;-80
2021/11/27 11:33:02;;;;;;;0.43;0.17;;;;;;;;;;5011423;28;20054;-80
2021/11/27 11:35:30;;;;;;;0.10;0.10;;;;;;;;;;5003557;28;20057;-80
2021/11/27 11:37:57;;;;;;;0.30;0.20;;;;;;;;;;5007863;28;20087;-81
2021/11/27 11:40:23;;;;;;;0.10;0.10;;;;;;;;;;4989057;28;20058;-81
2021/11/27 11:42:49;;;;;;;0.20;0.20;;;;;;;;;;5009122;28;20052;-80
2021/11/27 11:45:16;;;;;;;0.20;0.10;;;;;;;;;;5001685;28;20057;-81
2021/11/27 11:47:42;;;;;;;0.28;0.10;;;;;;;;;;5008052;28;20061;-81
2021/11/27 11:50:11;;;;;;;0.10;0.10;;;;;;;;;;5007787;28;20065;-79
2021/11/27 11:53:10;;;;;;;0.50;0.20;;;;;;;;;;5011413;28;20069;-81
2021/11/27 11:55:37;;;;;;;0.20;0.20;;;;;;;;;;4976029;28;20508;-80
2021/11/27 11:58:04;;;;;;;0.10;0.10;;;;;;;;;;5008177;28;20061;-80
2021/11/27 12:00:32;;;;;;;0.10;0.10;;;;;;;;;;5010157;28;20143;-80
2021/11/27 12:03:12;;;;;;;0.25;0.20;;;;;;;;;;5007789;28;20061;-80
2021/11/27 12:06:02;;;;;;;0.22;0.10;;;;;;;;;;5007192;28;20065;-81
2021/11/27 12:08:51;;;;;;;0.35;0.13;;;;;;;;;;5005729;28;20939;-80
2021/11/27 12:11:36;;;;;;;0.20;0.10;;;;;;;;;;5006476;28;20053;-79
2021/11/27 12:14:02;;;;;;;0.10;0.10;;;;;;;;;;5007820;28;20184;-80
2021/11/27 12:16:28;;;;;;;0.20;0.15;;;;;;;;;;5005976;28;20498;-80
2021/11/27 12:19:13;;;;;;;0.20;0.10;;;;;;;;;;4988728;28;20163;-80
2021/11/27 12:21:40;;;;;;;0.20;0.20;;;;;;;;;;5005859;28;20624;-80
2021/11/27 12:24:20;;;;;;;0.30;0.20;;;;;;;;;;4990529;28;20092;-79
2021/11/27 12:27:06;;;;;;;0.20;0.03;;;;;;;;;;4995960;28;22327;-80
2021/11/27 12:29:33;;;;;;;0.70;0.30;;;;;;;;;;5007954;28;20089;-80
2021/11/27 12:32:08;;;;;;;0.30;0.20;;;;;;;;;;4983945;28;20046;-80
2021/11/27 12:34:38;;;;;;;0.30;0.13;;;;;;;;;;5006147;28;20401;-79
2021/11/27 12:37:22;;;;;;;0.40;0.30;;;;;;;;;;4984202;28;20054;-80
2021/11/27 12:39:49;;;;;;;0.20;0.20;;;;;;;;;;4999892;28;20408;-80
2021/11/27 12:42:18;;;;;;;0.30;0.20;;;;;;;;;;5008594;28;20049;-81
2021/11/27 12:44:50;;;;;;;0.30;0.30;;;;;;;;;;5004957;28;20523;-81
2021/11/27 12:47:20;;;;;;;0.25;0.15;;;;;;;;;;4997550;28;20100;-79
2021/11/27 12:49:46;;;;;;;0.13;0.10;;;;;;;;;;5008119;28;20066;-80
2021/11/27 12:52:24;;;;;;;0.90;0.30;;;;;;;;;;5006423;28;20058;-79
2021/11/27 12:54:52;;;;;;;0.30;0.15;;;;;;;;;;5003500;28;20054;-79
2021/11/27 12:57:25;;;;;;;0.30;0.10;;;;;;;;;;4991898;28;20077;-80
2021/11/27 13:00:12;;;;;;;0.30;0.20;;;;;;;;;;4995541;28;20442;-80
2021/11/27 13:02:54;;;;;;;0.55;0.30;;;;;;;;;;5005338;28;20718;-80
2021/11/27 13:05:20;;;;;;;;;;;;;;;;;;5006910;28;20065;-80
2021/11/27 13:07:46;;;;;;;0.40;0.20;;;;;;;;;;5011232;28;20659;-80
2021/11/27 13:10:13;;;;;;;0.40;0.22;;;;;;;;;;5001749;28;20419;-80
2021/11/27 13:12:59;;;;;;;0.30;0.20;;;;;;;;;;5005136;28;20146;-80
2021/11/27 13:15:26;;;;;;;0.32;0.20;;;;;;;;;;4988641;28;20060;-79
2021/11/27 13:18:10;;;;;;;0.38;0.22;;;;;;;;;;5007410;28;20061;-80
2021/11/27 13:20:47;;;;;;;0.13;0.10;;;;;;;;;;5003207;28;20061;-81
2021/11/27 13:23:16;;;;;;;0.60;0.20;;;;;;;;;;5005174;28;20462;-80
2021/11/27 13:25:46;;;;;;;0.20;0.10;;;;;;;;;;4989665;28;20561;-80
2021/11/27 13:28:38;;;;;;;0.50;0.20;;;;;;;;;;5013734;28;20057;-81
2021/11/27 13:31:10;;;;;;;1.25;0.40;;;;;;;;;;5004189;28;20096;-81
2021/11/27 13:34:08;;;;;;;0.80;0.30;;;;;;;;;;5001922;28;20596;-80
2021/11/27 13:36:37;;;;;;;0.25;0.10;;;;;;;;;;4966057;28;20236;-79
2021/11/27 13:39:11;;;;;;;0.32;0.20;;;;;;;;;;5010542;28;20030;-80
2021/11/27 13:41:38;;;;;;;0.20;0.20;;;;;;;;;;5006318;28;21319;-80
2021/11/27 13:44:05;;;;;;;0.30;0.20;;;;;;;;;;5006245;28;20062;-80
2021/11/27 13:46:31;;;;;;;0.38;0.20;;;;;;;;;;4991014;28;20061;-81
2021/11/27 13:49:04;;;;;;;0.30;0.10;;;;;;;;;;5003921;28;20062;-81
2021/11/27 13:51:31;;;;;;;2.38;0.20;;;;;;;;;;5006216;28;20065;-80
2021/11/27 13:53:57;;;;;;;0.52;0.30;;;;;;;;;;5004549;28;20057;-80
2021/11/27 13:56:24;;;;;;;0.45;0.30;;;;;;;;;;5004943;28;20108;-80
2021/11/27 13:58:54;;;;;;;0.55;0.25;;;;;;;;;;5007793;28;20502;-81
2021/11/27 14:01:21;;;;;;;0.95;0.30;;;;;;;;;;5012272;28;20053;-79
2021/11/27 14:03:47;;;;;;;0.20;0.20;;;;;;;;;;5009825;28;20140;-80
2021/11/27 14:06:14;;;;;;;0.45;0.30;;;;;;;;;;5008757;28;20065;-79
2021/11/27 14:09:03;;;;;;;0.28;0.20;;;;;;;;;;5008895;28;20058;-79
2021/11/27 14:11:31;;;;;;;0.30;0.20;;;;;;;;;;5006660;28;20499;-79
2021/11/27 14:14:01;;;;;;;0.63;0.30;;;;;;;;;;5004015;28;20057;-80
2021/11/27 14:16:27;;;;;;;0.55;0.35;;;;;;;;;;4990991;28;20120;-79
2021/11/27 14:19:15;;;;;;;1.35;0.30;;;;;;;;;;5005511;28;20454;-79
2021/11/27 14:21:41;;;;;;;0.22;0.10;;;;;;;;;;5006244;28;20353;-80
2021/11/27 14:24:14;;;;;;;0.30;0.20;;;;;;;;;;5009054;28;20092;-78
2021/11/27 14:26:46;;;;;;;0.40;0.20;;;;;;;;;;5006259;28;20584;-79
2021/11/27 14:29:19;;;;;;;0.30;0.20;;;;;;;;;;5009967;28;20046;-79
2021/11/27 14:31:46;;;;;;;0.40;0.20;;;;;;;;;;5009573;28;20030;-79
2021/11/27 14:34:18;;;;;;;0.30;0.10;;;;;;;;;;5011172;28;20062;-79
2021/11/27 14:36:53;;;;;;;0.30;0.20;;;;;;;;;;5004418;28;20547;-80
2021/11/27 14:39:24;;;;;;;0.40;0.30;;;;;;;;;;5007236;28;20076;-80
2021/11/27 14:41:51;;;;;;;0.30;0.25;;;;;;;;;;5006417;28;20064;-79
2021/11/27 14:44:18;;;;;;;0.45;0.20;;;;;;;;;;5014470;28;20426;-79
2021/11/27 14:46:46;;;;;;;0.35;0.20;;;;;;;;;;5009042;28;20034;-79
2021/11/27 14:49:25;;;;;;;1.02;0.40;;;;;;;;;;5010457;28;20061;-79